sensor_id;sensor_type;location;lat;lon;timestamp;P1;durP1;ratioP1;P2;durP2;ratioP2
54517;SDS011;40423;53.176;6.002;2022-09-09T00:04:05;15.07;;;8.32;;
54517;SDS011;40423;53.176;6.002;2022-09-09T00:09:45;9.70;;;7.63;;
54517;SDS011;40423;53.176;6.002;2022-09-09T00:17:32;13.63;;;7.43;;
54517;SDS011;40423;53.176;6.002;2022-09-09T00:20:35;13.40;;;8.30;;
54517;SDS011;40423;53.176;6.002;2022-09-09T00:23:12;12.50;;;7.35;;
54517;SDS011;40423;53.176;6.002;2022-09-09T00:28:30;11.32;;;7.35;;
54517;SDS011;40423;53.176;6.002;2022-09-09T00:31:04;12.43;;;7.43;;
54517;SDS011;40423;53.176;6.002;2022-09-09T00:33:38;13.35;;;8.48;;
54517;SDS011;40423;53.176;6.002;2022-09-09T00:36:09;11.02;;;8.38;;
54517;SDS011;40423;53.176;6.002;2022-09-09T00:38:42;9.70;;;6.72;;
54517;SDS011;40423;53.176;6.002;2022-09-09T00:43:46;9.68;;;6.60;;
54517;SDS011;40423;53.176;6.002;2022-09-09T00:46:42;15.77;;;7.70;;
54517;SDS011;40423;53.176;6.002;2022-09-09T00:52:30;10.65;;;6.82;;
54517;SDS011;40423;53.176;6.002;2022-09-09T00:57:51;12.57;;;8.63;;
54517;SDS011;40423;53.176;6.002;2022-09-09T01:00:19;9.48;;;6.75;;
54517;SDS011;40423;53.176;6.002;2022-09-09T01:08:01;11.13;;;8.43;;
54517;SDS011;40423;53.176;6.002;2022-09-09T01:13:08;14.43;;;9.07;;
54517;SDS011;40423;53.176;6.002;2022-09-09T01:15:41;10.13;;;6.63;;
54517;SDS011;40423;53.176;6.002;2022-09-09T01:18:13;10.50;;;8.15;;
54517;SDS011;40423;53.176;6.002;2022-09-09T01:23:30;6.78;;;6.07;;
54517;SDS011;40423;53.176;6.002;2022-09-09T01:26:13;10.55;;;8.38;;
54517;SDS011;40423;53.176;6.002;2022-09-09T01:28:44;10.73;;;8.00;;
54517;SDS011;40423;53.176;6.002;2022-09-09T01:31:14;11.40;;;6.65;;
54517;SDS011;40423;53.176;6.002;2022-09-09T01:33:43;8.45;;;6.22;;
54517;SDS011;40423;53.176;6.002;2022-09-09T01:36:24;12.80;;;6.80;;
54517;SDS011;40423;53.176;6.002;2022-09-09T01:38:52;14.15;;;8.77;;
54517;SDS011;40423;53.176;6.002;2022-09-09T01:41:18;10.70;;;7.95;;
54517;SDS011;40423;53.176;6.002;2022-09-09T01:43:44;10.65;;;7.50;;
54517;SDS011;40423;53.176;6.002;2022-09-09T01:46:10;11.27;;;8.75;;
54517;SDS011;40423;53.176;6.002;2022-09-09T01:48:37;11.15;;;7.05;;
54517;SDS011;40423;53.176;6.002;2022-09-09T01:51:04;10.95;;;6.65;;
54517;SDS011;40423;53.176;6.002;2022-09-09T01:53:30;12.18;;;7.18;;
54517;SDS011;40423;53.176;6.002;2022-09-09T02:04:01;13.88;;;9.25;;
54517;SDS011;40423;53.176;6.002;2022-09-09T02:06:39;11.70;;;6.38;;
54517;SDS011;40423;53.176;6.002;2022-09-09T02:09:06;7.13;;;6.10;;
54517;SDS011;40423;53.176;6.002;2022-09-09T02:11:35;8.05;;;6.50;;
54517;SDS011;40423;53.176;6.002;2022-09-09T02:14:16;12.23;;;7.20;;
54517;SDS011;40423;53.176;6.002;2022-09-09T02:16:56;11.65;;;7.63;;
54517;SDS011;40423;53.176;6.002;2022-09-09T02:19:27;12.25;;;8.27;;
54517;SDS011;40423;53.176;6.002;2022-09-09T02:21:59;10.10;;;8.13;;
54517;SDS011;40423;53.176;6.002;2022-09-09T02:24:27;9.43;;;6.43;;
54517;SDS011;40423;53.176;6.002;2022-09-09T02:26:55;12.52;;;7.90;;
54517;SDS011;40423;53.176;6.002;2022-09-09T02:29:25;11.98;;;7.80;;
54517;SDS011;40423;53.176;6.002;2022-09-09T02:31:58;10.90;;;7.47;;
54517;SDS011;40423;53.176;6.002;2022-09-09T02:34:28;13.43;;;7.90;;
54517;SDS011;40423;53.176;6.002;2022-09-09T02:36:55;9.25;;;7.75;;
54517;SDS011;40423;53.176;6.002;2022-09-09T02:39:24;9.38;;;6.68;;
54517;SDS011;40423;53.176;6.002;2022-09-09T02:41:50;9.88;;;7.43;;
54517;SDS011;40423;53.176;6.002;2022-09-09T02:44:17;9.20;;;7.45;;
54517;SDS011;40423;53.176;6.002;2022-09-09T02:57:50;9.95;;;7.03;;
54517;SDS011;40423;53.176;6.002;2022-09-09T03:00:22;11.20;;;7.78;;
54517;SDS011;40423;53.176;6.002;2022-09-09T03:02:52;10.23;;;7.90;;
54517;SDS011;40423;53.176;6.002;2022-09-09T03:05:19;6.82;;;6.05;;
54517;SDS011;40423;53.176;6.002;2022-09-09T03:07:45;11.25;;;7.03;;
54517;SDS011;40423;53.176;6.002;2022-09-09T03:10:12;11.32;;;8.07;;
54517;SDS011;40423;53.176;6.002;2022-09-09T03:12:38;11.20;;;7.78;;
54517;SDS011;40423;53.176;6.002;2022-09-09T03:15:05;12.55;;;8.75;;
54517;SDS011;40423;53.176;6.002;2022-09-09T03:17:31;13.20;;;7.55;;
54517;SDS011;40423;53.176;6.002;2022-09-09T03:19:57;9.90;;;7.80;;
54517;SDS011;40423;53.176;6.002;2022-09-09T03:22:24;8.90;;;7.35;;
54517;SDS011;40423;53.176;6.002;2022-09-09T03:24:50;11.25;;;9.10;;
54517;SDS011;40423;53.176;6.002;2022-09-09T03:27:17;9.57;;;6.75;;
54517;SDS011;40423;53.176;6.002;2022-09-09T03:29:44;13.70;;;8.52;;
54517;SDS011;40423;53.176;6.002;2022-09-09T03:32:11;14.25;;;8.23;;
54517;SDS011;40423;53.176;6.002;2022-09-09T03:34:37;9.88;;;7.78;;
54517;SDS011;40423;53.176;6.002;2022-09-09T03:37:05;10.02;;;8.05;;
54517;SDS011;40423;53.176;6.002;2022-09-09T03:39:31;11.13;;;8.02;;
54517;SDS011;40423;53.176;6.002;2022-09-09T03:41:57;12.80;;;8.70;;
54517;SDS011;40423;53.176;6.002;2022-09-09T03:44:22;11.68;;;9.27;;
54517;SDS011;40423;53.176;6.002;2022-09-09T03:46:48;14.63;;;9.02;;
54517;SDS011;40423;53.176;6.002;2022-09-09T03:49:14;11.23;;;8.90;;
54517;SDS011;40423;53.176;6.002;2022-09-09T03:51:40;10.65;;;7.45;;
54517;SDS011;40423;53.176;6.002;2022-09-09T03:54:06;12.80;;;9.23;;
54517;SDS011;40423;53.176;6.002;2022-09-09T03:56:35;10.38;;;8.90;;
54517;SDS011;40423;53.176;6.002;2022-09-09T03:59:02;13.35;;;8.65;;
54517;SDS011;40423;53.176;6.002;2022-09-09T04:01:29;13.32;;;7.68;;
54517;SDS011;40423;53.176;6.002;2022-09-09T04:03:55;14.02;;;7.22;;
54517;SDS011;40423;53.176;6.002;2022-09-09T04:06:23;10.07;;;8.20;;
54517;SDS011;40423;53.176;6.002;2022-09-09T04:08:49;10.43;;;7.57;;
54517;SDS011;40423;53.176;6.002;2022-09-09T04:11:17;9.77;;;7.03;;
54517;SDS011;40423;53.176;6.002;2022-09-09T04:13:43;10.98;;;8.43;;
54517;SDS011;40423;53.176;6.002;2022-09-09T04:16:10;12.57;;;8.25;;
54517;SDS011;40423;53.176;6.002;2022-09-09T04:18:38;9.88;;;7.00;;
54517;SDS011;40423;53.176;6.002;2022-09-09T04:21:04;9.20;;;5.95;;
54517;SDS011;40423;53.176;6.002;2022-09-09T04:23:31;9.55;;;7.10;;
54517;SDS011;40423;53.176;6.002;2022-09-09T04:25:59;8.40;;;5.80;;
54517;SDS011;40423;53.176;6.002;2022-09-09T04:28:27;10.52;;;7.43;;
54517;SDS011;40423;53.176;6.002;2022-09-09T04:30:54;10.52;;;7.63;;
54517;SDS011;40423;53.176;6.002;2022-09-09T04:33:24;10.68;;;7.80;;
54517;SDS011;40423;53.176;6.002;2022-09-09T04:35:56;11.15;;;8.02;;
54517;SDS011;40423;53.176;6.002;2022-09-09T04:38:22;12.10;;;8.43;;
54517;SDS011;40423;53.176;6.002;2022-09-09T04:40:48;10.63;;;8.93;;
54517;SDS011;40423;53.176;6.002;2022-09-09T04:43:16;15.75;;;9.93;;
54517;SDS011;40423;53.176;6.002;2022-09-09T04:45:46;13.75;;;9.55;;
54517;SDS011;40423;53.176;6.002;2022-09-09T04:48:13;12.98;;;9.48;;
54517;SDS011;40423;53.176;6.002;2022-09-09T04:50:39;11.65;;;8.13;;
54517;SDS011;40423;53.176;6.002;2022-09-09T04:53:05;13.70;;;9.43;;
54517;SDS011;40423;53.176;6.002;2022-09-09T04:55:34;11.32;;;9.45;;
54517;SDS011;40423;53.176;6.002;2022-09-09T04:58:04;14.45;;;9.80;;
54517;SDS011;40423;53.176;6.002;2022-09-09T05:00:32;11.70;;;9.27;;
54517;SDS011;40423;53.176;6.002;2022-09-09T05:03:03;15.00;;;10.20;;
54517;SDS011;40423;53.176;6.002;2022-09-09T05:05:30;14.20;;;8.00;;
54517;SDS011;40423;53.176;6.002;2022-09-09T05:08:05;14.07;;;9.40;;
54517;SDS011;40423;53.176;6.002;2022-09-09T05:10:34;12.73;;;8.50;;
54517;SDS011;40423;53.176;6.002;2022-09-09T05:13:02;12.57;;;8.38;;
54517;SDS011;40423;53.176;6.002;2022-09-09T05:15:29;13.50;;;9.38;;
54517;SDS011;40423;53.176;6.002;2022-09-09T05:17:59;12.88;;;9.18;;
54517;SDS011;40423;53.176;6.002;2022-09-09T05:20:26;11.90;;;7.93;;
54517;SDS011;40423;53.176;6.002;2022-09-09T05:22:53;12.70;;;9.50;;
54517;SDS011;40423;53.176;6.002;2022-09-09T05:25:19;13.20;;;8.13;;
54517;SDS011;40423;53.176;6.002;2022-09-09T05:27:45;10.00;;;7.47;;
54517;SDS011;40423;53.176;6.002;2022-09-09T05:30:11;12.40;;;10.50;;
54517;SDS011;40423;53.176;6.002;2022-09-09T05:32:37;16.02;;;10.30;;
54517;SDS011;40423;53.176;6.002;2022-09-09T05:35:02;12.82;;;10.40;;
54517;SDS011;40423;53.176;6.002;2022-09-09T05:37:30;13.68;;;10.45;;
54517;SDS011;40423;53.176;6.002;2022-09-09T05:39:56;13.02;;;11.13;;
54517;SDS011;40423;53.176;6.002;2022-09-09T05:42:23;13.15;;;9.75;;
54517;SDS011;40423;53.176;6.002;2022-09-09T05:44:49;13.95;;;11.07;;
54517;SDS011;40423;53.176;6.002;2022-09-09T05:47:16;13.32;;;11.07;;
54517;SDS011;40423;53.176;6.002;2022-09-09T05:49:42;13.20;;;10.48;;
54517;SDS011;40423;53.176;6.002;2022-09-09T05:52:08;13.85;;;11.40;;
54517;SDS011;40423;53.176;6.002;2022-09-09T05:54:35;12.65;;;10.73;;
54517;SDS011;40423;53.176;6.002;2022-09-09T05:57:02;14.43;;;11.82;;
54517;SDS011;40423;53.176;6.002;2022-09-09T05:59:28;18.70;;;13.50;;
54517;SDS011;40423;53.176;6.002;2022-09-09T06:01:54;16.58;;;12.35;;
54517;SDS011;40423;53.176;6.002;2022-09-09T06:04:20;18.15;;;13.93;;
54517;SDS011;40423;53.176;6.002;2022-09-09T06:06:49;14.13;;;11.90;;
54517;SDS011;40423;53.176;6.002;2022-09-09T06:09:15;14.40;;;11.40;;
54517;SDS011;40423;53.176;6.002;2022-09-09T06:11:41;14.18;;;12.35;;
54517;SDS011;40423;53.176;6.002;2022-09-09T06:14:08;16.48;;;12.73;;
54517;SDS011;40423;53.176;6.002;2022-09-09T06:16:34;15.50;;;11.43;;
54517;SDS011;40423;53.176;6.002;2022-09-09T06:19:00;13.95;;;11.35;;
54517;SDS011;40423;53.176;6.002;2022-09-09T06:21:35;12.80;;;11.23;;
54517;SDS011;40423;53.176;6.002;2022-09-09T06:26:30;14.60;;;11.25;;
54517;SDS011;40423;53.176;6.002;2022-09-09T06:28:58;14.43;;;11.32;;
54517;SDS011;40423;53.176;6.002;2022-09-09T06:31:25;17.00;;;11.35;;
54517;SDS011;40423;53.176;6.002;2022-09-09T06:33:55;11.75;;;10.35;;
54517;SDS011;40423;53.176;6.002;2022-09-09T06:36:23;14.13;;;10.90;;
54517;SDS011;40423;53.176;6.002;2022-09-09T06:38:50;11.73;;;9.15;;
54517;SDS011;40423;53.176;6.002;2022-09-09T06:41:17;12.82;;;9.40;;
54517;SDS011;40423;53.176;6.002;2022-09-09T06:43:44;14.75;;;9.50;;
54517;SDS011;40423;53.176;6.002;2022-09-09T06:46:14;14.20;;;10.95;;
54517;SDS011;40423;53.176;6.002;2022-09-09T06:48:42;13.65;;;10.10;;
54517;SDS011;40423;53.176;6.002;2022-09-09T06:53:39;11.35;;;8.77;;
54517;SDS011;40423;53.176;6.002;2022-09-09T06:58:55;13.80;;;10.25;;
54517;SDS011;40423;53.176;6.002;2022-09-09T07:01:24;13.15;;;9.73;;
54517;SDS011;40423;53.176;6.002;2022-09-09T07:03:52;16.17;;;9.88;;
54517;SDS011;40423;53.176;6.002;2022-09-09T07:06:23;14.38;;;10.10;;
54517;SDS011;40423;53.176;6.002;2022-09-09T07:08:51;15.82;;;9.80;;
54517;SDS011;40423;53.176;6.002;2022-09-09T07:11:21;12.18;;;9.23;;
54517;SDS011;40423;53.176;6.002;2022-09-09T07:13:48;13.00;;;9.55;;
54517;SDS011;40423;53.176;6.002;2022-09-09T07:16:15;12.05;;;9.23;;
54517;SDS011;40423;53.176;6.002;2022-09-09T07:18:43;12.05;;;8.85;;
54517;SDS011;40423;53.176;6.002;2022-09-09T07:21:10;13.10;;;9.23;;
54517;SDS011;40423;53.176;6.002;2022-09-09T07:23:39;11.15;;;9.07;;
54517;SDS011;40423;53.176;6.002;2022-09-09T07:26:10;12.85;;;9.05;;
54517;SDS011;40423;53.176;6.002;2022-09-09T07:28:38;14.52;;;9.32;;
54517;SDS011;40423;53.176;6.002;2022-09-09T07:31:04;11.63;;;9.25;;
54517;SDS011;40423;53.176;6.002;2022-09-09T07:33:32;11.90;;;9.35;;
54517;SDS011;40423;53.176;6.002;2022-09-09T07:36:06;11.65;;;8.57;;
54517;SDS011;40423;53.176;6.002;2022-09-09T07:38:53;8.82;;;7.43;;
54517;SDS011;40423;53.176;6.002;2022-09-09T07:41:22;9.48;;;7.05;;
54517;SDS011;40423;53.176;6.002;2022-09-09T07:43:52;9.50;;;7.22;;
54517;SDS011;40423;53.176;6.002;2022-09-09T07:46:24;11.32;;;7.03;;
54517;SDS011;40423;53.176;6.002;2022-09-09T07:48:53;11.75;;;7.82;;
54517;SDS011;40423;53.176;6.002;2022-09-09T07:51:23;12.40;;;8.15;;
54517;SDS011;40423;53.176;6.002;2022-09-09T07:53:57;9.85;;;6.80;;
54517;SDS011;40423;53.176;6.002;2022-09-09T07:56:25;9.50;;;6.65;;
54517;SDS011;40423;53.176;6.002;2022-09-09T07:58:52;10.40;;;7.43;;
54517;SDS011;40423;53.176;6.002;2022-09-09T08:01:20;10.50;;;6.05;;
54517;SDS011;40423;53.176;6.002;2022-09-09T08:03:52;10.60;;;6.43;;
54517;SDS011;40423;53.176;6.002;2022-09-09T08:06:22;9.30;;;5.90;;
54517;SDS011;40423;53.176;6.002;2022-09-09T08:08:52;10.05;;;6.65;;
54517;SDS011;40423;53.176;6.002;2022-09-09T08:11:22;8.43;;;5.90;;
54517;SDS011;40423;53.176;6.002;2022-09-09T08:13:49;8.13;;;5.93;;
54517;SDS011;40423;53.176;6.002;2022-09-09T08:16:18;9.25;;;6.40;;
54517;SDS011;40423;53.176;6.002;2022-09-09T08:18:49;9.02;;;5.70;;
54517;SDS011;40423;53.176;6.002;2022-09-09T08:21:23;8.85;;;6.22;;
54517;SDS011;40423;53.176;6.002;2022-09-09T08:23:52;9.25;;;6.22;;
54517;SDS011;40423;53.176;6.002;2022-09-09T08:26:20;8.63;;;6.03;;
54517;SDS011;40423;53.176;6.002;2022-09-09T08:28:47;12.32;;;6.00;;
54517;SDS011;40423;53.176;6.002;2022-09-09T08:31:17;9.27;;;5.97;;
54517;SDS011;40423;53.176;6.002;2022-09-09T08:33:45;9.40;;;6.05;;
54517;SDS011;40423;53.176;6.002;2022-09-09T08:36:12;9.88;;;5.88;;
54517;SDS011;40423;53.176;6.002;2022-09-09T08:38:40;13.90;;;6.15;;
54517;SDS011;40423;53.176;6.002;2022-09-09T08:41:12;9.10;;;6.55;;
54517;SDS011;40423;53.176;6.002;2022-09-09T08:46:42;11.48;;;6.00;;
54517;SDS011;40423;53.176;6.002;2022-09-09T08:52:11;6.95;;;5.57;;
54517;SDS011;40423;53.176;6.002;2022-09-09T08:54:41;8.68;;;6.38;;
54517;SDS011;40423;53.176;6.002;2022-09-09T08:57:09;9.50;;;6.28;;
54517;SDS011;40423;53.176;6.002;2022-09-09T08:59:42;11.75;;;6.60;;
54517;SDS011;40423;53.176;6.002;2022-09-09T09:02:13;8.82;;;5.88;;
54517;SDS011;40423;53.176;6.002;2022-09-09T09:07:59;10.25;;;5.13;;
54517;SDS011;40423;53.176;6.002;2022-09-09T09:10:43;9.23;;;4.75;;
54517;SDS011;40423;53.176;6.002;2022-09-09T09:15:55;13.50;;;4.88;;
54517;SDS011;40423;53.176;6.002;2022-09-09T09:18:27;11.18;;;4.78;;
54517;SDS011;40423;53.176;6.002;2022-09-09T09:23:45;20.52;;;4.75;;
54517;SDS011;40423;53.176;6.002;2022-09-09T09:26:21;7.60;;;3.70;;
54517;SDS011;40423;53.176;6.002;2022-09-09T09:28:52;7.65;;;4.03;;
54517;SDS011;40423;53.176;6.002;2022-09-09T09:31:22;10.15;;;4.90;;
54517;SDS011;40423;53.176;6.002;2022-09-09T09:33:55;9.77;;;3.88;;
54517;SDS011;40423;53.176;6.002;2022-09-09T09:36:25;10.80;;;3.40;;
54517;SDS011;40423;53.176;6.002;2022-09-09T09:39:00;11.23;;;4.05;;
54517;SDS011;40423;53.176;6.002;2022-09-09T09:41:32;11.48;;;4.22;;
54517;SDS011;40423;53.176;6.002;2022-09-09T09:44:01;10.38;;;3.10;;
54517;SDS011;40423;53.176;6.002;2022-09-09T09:46:28;12.57;;;4.35;;
54517;SDS011;40423;53.176;6.002;2022-09-09T09:48:57;12.00;;;3.95;;
54517;SDS011;40423;53.176;6.002;2022-09-09T09:51:27;11.00;;;4.60;;
54517;SDS011;40423;53.176;6.002;2022-09-09T09:54:07;9.63;;;3.38;;
54517;SDS011;40423;53.176;6.002;2022-09-09T09:56:34;7.80;;;2.88;;
54517;SDS011;40423;53.176;6.002;2022-09-09T09:59:01;8.07;;;3.22;;
54517;SDS011;40423;53.176;6.002;2022-09-09T10:01:28;5.68;;;3.22;;
54517;SDS011;40423;53.176;6.002;2022-09-09T10:04:02;6.93;;;2.97;;
54517;SDS011;40423;53.176;6.002;2022-09-09T10:06:41;6.82;;;3.08;;
54517;SDS011;40423;53.176;6.002;2022-09-09T10:12:09;6.70;;;2.83;;
54517;SDS011;40423;53.176;6.002;2022-09-09T10:14:39;5.43;;;3.05;;
54517;SDS011;40423;53.176;6.002;2022-09-09T10:19:57;9.68;;;3.20;;
54517;SDS011;40423;53.176;6.002;2022-09-09T10:22:39;9.82;;;3.95;;
54517;SDS011;40423;53.176;6.002;2022-09-09T10:31:07;9.68;;;3.25;;
54517;SDS011;40423;53.176;6.002;2022-09-09T10:57:41;5.47;;;2.45;;
54517;SDS011;40423;53.176;6.002;2022-09-09T11:00:19;6.53;;;2.60;;
54517;SDS011;40423;53.176;6.002;2022-09-09T11:02:56;9.35;;;2.85;;
54517;SDS011;40423;53.176;6.002;2022-09-09T11:08:17;8.90;;;2.67;;
54517;SDS011;40423;53.176;6.002;2022-09-09T11:11:03;6.60;;;1.65;;
54517;SDS011;40423;53.176;6.002;2022-09-09T11:16:25;7.35;;;2.05;;
54517;SDS011;40423;53.176;6.002;2022-09-09T11:21:52;10.30;;;2.30;;
54517;SDS011;40423;53.176;6.002;2022-09-09T11:27:00;7.90;;;1.77;;
54517;SDS011;40423;53.176;6.002;2022-09-09T11:42:38;3.40;;;1.65;;
54517;SDS011;40423;53.176;6.002;2022-09-09T11:45:10;8.85;;;2.25;;
54517;SDS011;40423;53.176;6.002;2022-09-09T11:47:58;6.70;;;1.88;;
54517;SDS011;40423;53.176;6.002;2022-09-09T11:53:02;7.88;;;1.98;;
54517;SDS011;40423;53.176;6.002;2022-09-09T11:55:46;7.95;;;2.30;;
54517;SDS011;40423;53.176;6.002;2022-09-09T12:00:39;7.53;;;2.00;;
54517;SDS011;40423;53.176;6.002;2022-09-09T12:03:30;7.25;;;2.20;;
54517;SDS011;40423;53.176;6.002;2022-09-09T12:06:11;8.13;;;1.63;;
54517;SDS011;40423;53.176;6.002;2022-09-09T12:08:41;5.53;;;1.55;;
54517;SDS011;40423;53.176;6.002;2022-09-09T12:11:10;5.65;;;1.63;;
54517;SDS011;40423;53.176;6.002;2022-09-09T12:13:36;7.93;;;2.13;;
54517;SDS011;40423;53.176;6.002;2022-09-09T12:16:02;6.00;;;1.63;;
54517;SDS011;40423;53.176;6.002;2022-09-09T12:21:13;6.80;;;2.13;;
54517;SDS011;40423;53.176;6.002;2022-09-09T12:27:23;8.32;;;1.95;;
54517;SDS011;40423;53.176;6.002;2022-09-09T12:32:33;9.75;;;2.58;;
54517;SDS011;40423;53.176;6.002;2022-09-09T12:35:02;8.48;;;2.33;;
54517;SDS011;40423;53.176;6.002;2022-09-09T12:37:42;5.90;;;2.17;;
54517;SDS011;40423;53.176;6.002;2022-09-09T12:40:23;7.93;;;2.40;;
54517;SDS011;40423;53.176;6.002;2022-09-09T12:42:53;6.78;;;2.33;;
54517;SDS011;40423;53.176;6.002;2022-09-09T12:45:24;7.63;;;2.17;;
54517;SDS011;40423;53.176;6.002;2022-09-09T12:47:55;8.63;;;2.33;;
54517;SDS011;40423;53.176;6.002;2022-09-09T12:50:23;5.35;;;2.17;;
54517;SDS011;40423;53.176;6.002;2022-09-09T12:52:51;8.27;;;2.45;;
54517;SDS011;40423;53.176;6.002;2022-09-09T12:55:32;6.05;;;1.65;;
54517;SDS011;40423;53.176;6.002;2022-09-09T12:58:01;6.93;;;2.10;;
54517;SDS011;40423;53.176;6.002;2022-09-09T13:00:30;6.20;;;1.83;;
54517;SDS011;40423;53.176;6.002;2022-09-09T13:02:57;5.78;;;2.03;;
54517;SDS011;40423;53.176;6.002;2022-09-09T13:05:28;6.15;;;2.00;;
54517;SDS011;40423;53.176;6.002;2022-09-09T13:10:31;7.72;;;1.92;;
54517;SDS011;40423;53.176;6.002;2022-09-09T13:13:00;5.53;;;2.03;;
54517;SDS011;40423;53.176;6.002;2022-09-09T13:15:28;7.88;;;1.88;;
54517;SDS011;40423;53.176;6.002;2022-09-09T13:17:58;6.43;;;1.75;;
54517;SDS011;40423;53.176;6.002;2022-09-09T13:20:36;7.45;;;2.22;;
54517;SDS011;40423;53.176;6.002;2022-09-09T13:23:02;8.90;;;2.83;;
54517;SDS011;40423;53.176;6.002;2022-09-09T13:25:28;4.47;;;1.65;;
54517;SDS011;40423;53.176;6.002;2022-09-09T13:28:01;6.20;;;1.85;;
54517;SDS011;40423;53.176;6.002;2022-09-09T13:30:32;7.70;;;1.75;;
54517;SDS011;40423;53.176;6.002;2022-09-09T13:35:47;4.97;;;2.00;;
54517;SDS011;40423;53.176;6.002;2022-09-09T13:38:21;5.00;;;1.60;;
54517;SDS011;40423;53.176;6.002;2022-09-09T13:43:28;6.13;;;1.90;;
54517;SDS011;40423;53.176;6.002;2022-09-09T13:46:26;6.00;;;2.03;;
54517;SDS011;40423;53.176;6.002;2022-09-09T13:56:36;5.47;;;1.67;;
54517;SDS011;40423;53.176;6.002;2022-09-09T13:59:04;4.40;;;1.58;;
54517;SDS011;40423;53.176;6.002;2022-09-09T14:01:33;5.65;;;1.58;;
54517;SDS011;40423;53.176;6.002;2022-09-09T14:04:00;5.60;;;1.80;;
54517;SDS011;40423;53.176;6.002;2022-09-09T14:06:25;7.05;;;1.70;;
54517;SDS011;40423;53.176;6.002;2022-09-09T14:08:52;7.18;;;1.60;;
54517;SDS011;40423;53.176;6.002;2022-09-09T14:11:19;7.15;;;1.88;;
54517;SDS011;40423;53.176;6.002;2022-09-09T14:13:46;5.30;;;1.50;;
54517;SDS011;40423;53.176;6.002;2022-09-09T14:16:16;3.47;;;1.58;;
54517;SDS011;40423;53.176;6.002;2022-09-09T14:18:43;4.95;;;1.30;;
54517;SDS011;40423;53.176;6.002;2022-09-09T14:21:09;3.50;;;1.33;;
54517;SDS011;40423;53.176;6.002;2022-09-09T14:23:36;8.80;;;2.45;;
54517;SDS011;40423;53.176;6.002;2022-09-09T14:26:03;5.68;;;1.52;;
54517;SDS011;40423;53.176;6.002;2022-09-09T14:28:30;2.65;;;1.27;;
54517;SDS011;40423;53.176;6.002;2022-09-09T14:30:58;2.00;;;1.00;;
54517;SDS011;40423;53.176;6.002;2022-09-09T14:33:26;5.28;;;1.40;;
54517;SDS011;40423;53.176;6.002;2022-09-09T14:35:58;4.45;;;1.40;;
54517;SDS011;40423;53.176;6.002;2022-09-09T14:38:25;5.25;;;1.10;;
54517;SDS011;40423;53.176;6.002;2022-09-09T14:40:54;3.22;;;1.40;;
54517;SDS011;40423;53.176;6.002;2022-09-09T14:43:19;2.95;;;1.23;;
54517;SDS011;40423;53.176;6.002;2022-09-09T14:45:45;3.53;;;1.35;;
54517;SDS011;40423;53.176;6.002;2022-09-09T14:48:13;3.78;;;1.67;;
54517;SDS011;40423;53.176;6.002;2022-09-09T14:50:41;3.60;;;1.30;;
54517;SDS011;40423;53.176;6.002;2022-09-09T14:53:07;3.90;;;1.20;;
54517;SDS011;40423;53.176;6.002;2022-09-09T14:55:34;5.00;;;1.80;;
54517;SDS011;40423;53.176;6.002;2022-09-09T14:58:00;5.10;;;1.35;;
54517;SDS011;40423;53.176;6.002;2022-09-09T15:00:25;5.55;;;1.40;;
54517;SDS011;40423;53.176;6.002;2022-09-09T15:02:52;5.15;;;1.63;;
54517;SDS011;40423;53.176;6.002;2022-09-09T15:05:18;5.38;;;1.30;;
54517;SDS011;40423;53.176;6.002;2022-09-09T15:07:44;4.57;;;1.60;;
54517;SDS011;40423;53.176;6.002;2022-09-09T15:10:10;5.20;;;1.58;;
54517;SDS011;40423;53.176;6.002;2022-09-09T15:12:37;5.72;;;1.80;;
54517;SDS011;40423;53.176;6.002;2022-09-09T15:15:06;3.28;;;1.35;;
54517;SDS011;40423;53.176;6.002;2022-09-09T15:17:33;3.95;;;1.40;;
54517;SDS011;40423;53.176;6.002;2022-09-09T15:19:58;4.40;;;1.40;;
54517;SDS011;40423;53.176;6.002;2022-09-09T15:22:24;2.88;;;1.50;;
54517;SDS011;40423;53.176;6.002;2022-09-09T15:24:50;4.10;;;1.55;;
54517;SDS011;40423;53.176;6.002;2022-09-09T15:27:16;5.38;;;1.92;;
54517;SDS011;40423;53.176;6.002;2022-09-09T15:29:43;3.00;;;1.40;;
54517;SDS011;40423;53.176;6.002;2022-09-09T15:32:09;3.55;;;1.55;;
54517;SDS011;40423;53.176;6.002;2022-09-09T15:34:35;2.92;;;1.70;;
54517;SDS011;40423;53.176;6.002;2022-09-09T15:37:00;4.63;;;2.17;;
54517;SDS011;40423;53.176;6.002;2022-09-09T15:39:26;3.70;;;1.63;;
54517;SDS011;40423;53.176;6.002;2022-09-09T15:41:52;3.38;;;1.80;;
54517;SDS011;40423;53.176;6.002;2022-09-09T15:44:18;3.88;;;1.60;;
54517;SDS011;40423;53.176;6.002;2022-09-09T15:46:45;5.13;;;2.00;;
54517;SDS011;40423;53.176;6.002;2022-09-09T15:49:18;4.38;;;1.98;;
54517;SDS011;40423;53.176;6.002;2022-09-09T15:51:53;2.85;;;1.77;;
54517;SDS011;40423;53.176;6.002;2022-09-09T15:54:21;4.63;;;2.05;;
54517;SDS011;40423;53.176;6.002;2022-09-09T15:56:53;5.88;;;2.22;;
54517;SDS011;40423;53.176;6.002;2022-09-09T15:59:24;4.20;;;2.17;;
54517;SDS011;40423;53.176;6.002;2022-09-09T16:01:53;8.32;;;2.20;;
54517;SDS011;40423;53.176;6.002;2022-09-09T16:04:20;4.45;;;2.30;;
54517;SDS011;40423;53.176;6.002;2022-09-09T16:06:50;5.78;;;2.47;;
54517;SDS011;40423;53.176;6.002;2022-09-09T16:09:17;4.95;;;2.47;;
54517;SDS011;40423;53.176;6.002;2022-09-09T16:11:43;5.45;;;2.45;;
54517;SDS011;40423;53.176;6.002;2022-09-09T16:14:08;3.03;;;1.90;;
54517;SDS011;40423;53.176;6.002;2022-09-09T16:16:36;5.35;;;2.83;;
54517;SDS011;40423;53.176;6.002;2022-09-09T16:19:03;5.13;;;2.40;;
54517;SDS011;40423;53.176;6.002;2022-09-09T16:21:38;4.20;;;2.13;;
54517;SDS011;40423;53.176;6.002;2022-09-09T16:24:06;4.63;;;2.30;;
54517;SDS011;40423;53.176;6.002;2022-09-09T16:26:34;4.05;;;1.95;;
54517;SDS011;40423;53.176;6.002;2022-09-09T16:29:01;4.80;;;2.25;;
54517;SDS011;40423;53.176;6.002;2022-09-09T16:31:28;3.35;;;2.03;;
54517;SDS011;40423;53.176;6.002;2022-09-09T16:33:55;4.53;;;2.17;;
54517;SDS011;40423;53.176;6.002;2022-09-09T16:36:24;3.28;;;1.90;;
54517;SDS011;40423;53.176;6.002;2022-09-09T16:38:52;4.72;;;2.25;;
54517;SDS011;40423;53.176;6.002;2022-09-09T16:41:20;3.83;;;2.20;;
54517;SDS011;40423;53.176;6.002;2022-09-09T16:43:46;5.47;;;2.88;;
54517;SDS011;40423;53.176;6.002;2022-09-09T16:46:13;5.70;;;2.20;;
54517;SDS011;40423;53.176;6.002;2022-09-09T16:48:43;4.70;;;2.22;;
54517;SDS011;40423;53.176;6.002;2022-09-09T16:51:14;4.68;;;2.20;;
54517;SDS011;40423;53.176;6.002;2022-09-09T16:53:52;3.70;;;2.40;;
54517;SDS011;40423;53.176;6.002;2022-09-09T16:56:20;6.20;;;2.50;;
54517;SDS011;40423;53.176;6.002;2022-09-09T16:58:51;5.20;;;2.55;;
54517;SDS011;40423;53.176;6.002;2022-09-09T17:01:21;6.10;;;2.50;;
54517;SDS011;40423;53.176;6.002;2022-09-09T17:03:53;4.22;;;2.50;;
54517;SDS011;40423;53.176;6.002;2022-09-09T17:06:23;5.15;;;2.80;;
54517;SDS011;40423;53.176;6.002;2022-09-09T17:08:54;6.20;;;2.72;;
54517;SDS011;40423;53.176;6.002;2022-09-09T17:11:20;4.68;;;2.70;;
54517;SDS011;40423;53.176;6.002;2022-09-09T17:13:46;5.57;;;3.00;;
54517;SDS011;40423;53.176;6.002;2022-09-09T17:16:13;6.28;;;3.28;;
54517;SDS011;40423;53.176;6.002;2022-09-09T17:18:40;3.55;;;2.35;;
54517;SDS011;40423;53.176;6.002;2022-09-09T17:21:07;6.78;;;2.65;;
54517;SDS011;40423;53.176;6.002;2022-09-09T17:23:36;4.80;;;2.80;;
54517;SDS011;40423;53.176;6.002;2022-09-09T17:26:03;4.25;;;2.67;;
54517;SDS011;40423;53.176;6.002;2022-09-09T17:28:32;4.88;;;2.63;;
54517;SDS011;40423;53.176;6.002;2022-09-09T17:31:04;5.55;;;2.25;;
54517;SDS011;40423;53.176;6.002;2022-09-09T17:33:35;6.30;;;2.90;;
54517;SDS011;40423;53.176;6.002;2022-09-09T17:38:36;9.15;;;3.05;;
54517;SDS011;40423;53.176;6.002;2022-09-09T17:41:07;7.03;;;2.33;;